CYTZ/YTZ METAR and TAF weather

Enter ICAO airport designator
Station Type Date Time Source
CYTZ METAR 2019/01/21 22:00 UTC NOAA

CYTZ 212200Z AUTO 30012G18KT 9SM CLR M11/M19 A3049 RMK SLP335


Station Type Date Time Source
CYTZ Decoded METAR 2019/01/21 22:00 UTC NOAA

Toronto Island Airport Automated Reporting Station, Canada (CYTZ) 43-38N 079-24W
Jan 21, 2019 - 05:00 PM EST / 2019.01.21 2200 UTC
Wind: from the WNW (300 degrees) at 14 MPH (12 KT) gusting to 21 MPH (18 KT):0
Visibility: 9 mile(s):0
Sky conditions: clear
Temperature: 12 F (-11 C)
Windchill: -4 F (-20 C):1
Dew Point: -2 F (-19 C)
Relative Humidity: 51%
Pressure (altimeter): 30.49 in. Hg (1032 hPa)
ob: CYTZ 212200Z AUTO 30012G18KT 9SM CLR M11/M19 A3049 RMK SLP335
cycle: 22

Station Type Date Time Source
CYTZ TAF 2019/01/21 20:40 UTC NOAA

TAF CYTZ 211938Z 2120/2220 31012G22KT P6SM FEW020
BECMG 2200/2201 34010KT
FM220600 32005KT P6SM SCT250
FM221500 09005KT P6SM BKN120 OVC220
FM221800 10012G22KT P6SM OVC100
RMK FCST BASED ON AUTO OBS. NXT FCST BY 220200Z


Example: see airport list